Time;durP1;ratioP1;P1;durP2;ratioP2;P2;SDS_P1;SDS_P2;PMS_P1;PMS_P2;Temp;Humidity;BMP_temperature;BMP_pressure;BME280_temperature;BME280_humidity;BME280_pressure;Samples;Min_cycle;Max_cycle;Signal;HPM_P1;HPM_P2
2023/06/19 00:00:26;;;;;;;5.07;3.73;;;;;;;;;;5028393;28;20206;-65
2023/06/19 00:02:54;;;;;;;3.50;3.20;;;;;;;;;;5040131;28;20217;-65
2023/06/19 00:05:23;;;;;;;4.67;3.33;;;;;;;;;;5039328;28;20221;-66
2023/06/19 00:07:51;;;;;;;6.17;3.40;;;;;;;;;;5039646;28;20234;-65
2023/06/19 00:10:19;;;;;;;4.00;3.70;;;;;;;;;;5039826;28;20216;-65
2023/06/19 00:12:48;;;;;;;3.77;3.23;;;;;;;;;;5039886;28;20324;-65
2023/06/19 00:15:16;;;;;;;3.37;3.03;;;;;;;;;;5039488;28;20218;-65
2023/06/19 00:17:45;;;;;;;4.67;3.23;;;;;;;;;;5039533;28;20723;-66
2023/06/19 00:20:14;;;;;;;6.60;3.53;;;;;;;;;;5039067;28;20216;-65
2023/06/19 00:22:42;;;;;;;4.47;3.57;;;;;;;;;;5039716;28;20260;-66
2023/06/19 00:25:10;;;;;;;3.87;3.50;;;;;;;;;;5039582;28;20210;-66
2023/06/19 00:27:38;;;;;;;4.13;3.33;;;;;;;;;;5039221;28;20262;-66
2023/06/19 00:30:06;;;;;;;3.13;2.90;;;;;;;;;;5039188;28;20204;-65
2023/06/19 00:32:46;;;;;;;5.43;3.40;;;;;;;;;;5039538;28;20263;-66
2023/06/19 00:35:17;;;;;;;5.10;3.40;;;;;;;;;;5039164;28;20214;-66
2023/06/19 00:37:46;;;;;;;3.97;3.17;;;;;;;;;;5039280;28;20232;-66
2023/06/19 00:40:17;;;;;;;3.67;3.10;;;;;;;;;;5039317;28;20253;-66
2023/06/19 00:42:45;;;;;;;3.30;3.00;;;;;;;;;;5039215;28;20265;-66
2023/06/19 00:45:13;;;;;;;5.60;2.90;;;;;;;;;;5039042;28;20214;-66
2023/06/19 00:47:41;;;;;;;3.63;3.33;;;;;;;;;;5039009;28;20750;-66
2023/06/19 00:50:10;;;;;;;3.27;3.07;;;;;;;;;;5036335;28;20242;-66
2023/06/19 00:52:39;;;;;;;4.20;3.23;;;;;;;;;;5038970;28;20635;-66
2023/06/19 00:55:08;;;;;;;3.77;3.20;;;;;;;;;;5038823;28;20627;-66
2023/06/19 00:57:39;;;;;;;3.60;2.97;;;;;;;;;;5036354;28;20230;-66
2023/06/19 01:00:08;;;;;;;3.80;3.30;;;;;;;;;;5038397;28;20236;-65
2023/06/19 01:02:36;;;;;;;4.10;3.10;;;;;;;;;;5038714;28;20210;-66
2023/06/19 01:05:04;;;;;;;4.73;3.03;;;;;;;;;;5038308;28;20694;-66
2023/06/19 01:07:35;;;;;;;3.53;3.20;;;;;;;;;;5038422;28;20203;-66
2023/06/19 01:10:08;;;;;;;3.73;2.83;;;;;;;;;;5038587;28;20233;-66
2023/06/19 01:12:38;;;;;;;4.80;2.80;;;;;;;;;;5038331;28;20225;-66
2023/06/19 01:15:08;;;;;;;3.63;3.13;;;;;;;;;;5038709;28;20211;-66
2023/06/19 01:17:36;;;;;;;5.13;3.13;;;;;;;;;;5038246;28;20280;-66
2023/06/19 01:20:10;;;;;;;3.50;3.03;;;;;;;;;;5038125;28;20763;-66
2023/06/19 01:22:43;;;;;;;4.47;2.93;;;;;;;;;;5038226;28;20210;-66
2023/06/19 01:25:13;;;;;;;3.47;3.07;;;;;;;;;;5038229;28;20210;-65
2023/06/19 01:27:42;;;;;;;5.70;3.03;;;;;;;;;;5038362;28;20224;-65
2023/06/19 01:30:11;;;;;;;5.10;2.90;;;;;;;;;;5038587;28;20220;-65
2023/06/19 01:32:42;;;;;;;4.83;3.03;;;;;;;;;;5038080;28;20707;-66
2023/06/19 01:35:11;;;;;;;3.90;3.50;;;;;;;;;;5037690;28;20301;-68
2023/06/19 01:37:41;;;;;;;3.20;2.87;;;;;;;;;;5038289;28;20225;-65
2023/06/19 01:40:10;;;;;;;4.50;3.30;;;;;;;;;;5038214;28;20244;-68
2023/06/19 01:42:40;;;;;;;3.20;2.90;;;;;;;;;;5038255;28;20245;-66
2023/06/19 01:45:09;;;;;;;5.47;3.10;;;;;;;;;;5037980;28;20224;-68
2023/06/19 01:47:37;;;;;;;3.40;3.10;;;;;;;;;;5038146;28;20325;-68
2023/06/19 01:50:05;;;;;;;3.07;2.87;;;;;;;;;;5039955;28;20238;-68
2023/06/19 01:52:33;;;;;;;3.50;3.20;;;;;;;;;;5037762;28;20593;-68
2023/06/19 01:55:03;;;;;;;3.70;2.97;;;;;;;;;;5037660;28;20214;-65
2023/06/19 01:57:31;;;;;;;4.47;3.50;;;;;;;;;;5030302;28;20230;-65
2023/06/19 01:59:59;;;;;;;3.87;3.47;;;;;;;;;;5034353;28;20210;-65
2023/06/19 02:02:27;;;;;;;3.30;3.00;;;;;;;;;;5030139;28;20198;-65
2023/06/19 02:04:55;;;;;;;3.37;3.07;;;;;;;;;;5028828;28;20286;-66
2023/06/19 02:07:23;;;;;;;5.23;2.90;;;;;;;;;;5034552;28;20612;-65
2023/06/19 02:09:52;;;;;;;3.17;2.77;;;;;;;;;;5034700;28;20257;-65
2023/06/19 02:12:23;;;;;;;4.60;2.70;;;;;;;;;;5031602;28;20253;-65
2023/06/19 02:14:51;;;;;;;4.63;2.87;;;;;;;;;;5028286;28;20229;-65
2023/06/19 02:17:19;;;;;;;3.40;3.07;;;;;;;;;;5036367;28;20201;-65
2023/06/19 02:19:47;;;;;;;3.20;3.00;;;;;;;;;;5037290;28;20572;-65
2023/06/19 02:22:18;;;;;;;3.10;2.90;;;;;;;;;;5041419;28;20288;-65
2023/06/19 02:24:47;;;;;;;3.37;3.07;;;;;;;;;;5040829;28;20683;-65
2023/06/19 02:27:15;;;;;;;4.43;3.00;;;;;;;;;;5038655;28;20277;-65
2023/06/19 02:29:45;;;;;;;3.17;2.87;;;;;;;;;;5038808;28;20614;-64
2023/06/19 02:32:13;;;;;;;4.73;3.60;;;;;;;;;;5038188;28;20233;-67
2023/06/19 02:34:41;;;;;;;4.03;3.20;;;;;;;;;;5039272;28;20221;-65
2023/06/19 02:37:09;;;;;;;4.13;2.90;;;;;;;;;;5036721;28;20220;-66
2023/06/19 02:39:37;;;;;;;3.70;3.40;;;;;;;;;;5034718;28;20225;-67
2023/06/19 02:42:06;;;;;;;4.90;2.70;;;;;;;;;;5039742;28;20807;-65
2023/06/19 02:44:34;;;;;;;4.60;3.03;;;;;;;;;;5040105;28;20727;-67
2023/06/19 02:47:03;;;;;;;4.07;3.43;;;;;;;;;;5043462;28;20209;-67
2023/06/19 02:49:31;;;;;;;2.90;2.70;;;;;;;;;;5043785;28;20239;-67
2023/06/19 02:52:00;;;;;;;5.00;3.17;;;;;;;;;;5043438;28;20296;-67
2023/06/19 02:54:28;;;;;;;3.73;2.90;;;;;;;;;;5040619;28;20224;-66
2023/06/19 02:56:56;;;;;;;3.23;2.87;;;;;;;;;;5043781;28;20251;-67
2023/06/19 02:59:24;;;;;;;4.60;3.20;;;;;;;;;;5040904;28;20228;-67
2023/06/19 03:01:52;;;;;;;4.23;3.17;;;;;;;;;;5041299;28;20209;-67
2023/06/19 03:04:23;;;;;;;3.43;3.13;;;;;;;;;;5036046;28;20759;-67
2023/06/19 03:06:55;;;;;;;4.33;3.03;;;;;;;;;;5027370;28;20201;-67
2023/06/19 03:09:24;;;;;;;3.53;3.10;;;;;;;;;;5029216;28;20228;-67
2023/06/19 03:11:52;;;;;;;4.73;3.10;;;;;;;;;;5036729;28;20213;-67
2023/06/19 03:14:20;;;;;;;5.80;3.07;;;;;;;;;;5043415;28;20283;-67
2023/06/19 03:16:48;;;;;;;6.67;3.30;;;;;;;;;;5043511;28;20318;-67
2023/06/19 03:19:16;;;;;;;3.40;3.10;;;;;;;;;;5042778;28;20232;-67
2023/06/19 03:21:45;;;;;;;2.80;2.60;;;;;;;;;;5043300;28;20575;-66
2023/06/19 03:24:13;;;;;;;3.97;3.10;;;;;;;;;;5043601;28;20264;-67
2023/06/19 03:26:41;;;;;;;5.03;3.13;;;;;;;;;;5043759;28;20213;-67
2023/06/19 03:29:09;;;;;;;3.77;3.17;;;;;;;;;;5039231;28;20233;-67
2023/06/19 03:31:39;;;;;;;3.80;2.80;;;;;;;;;;5040418;28;20236;-67
2023/06/19 03:34:07;;;;;;;3.60;3.30;;;;;;;;;;5040024;28;20778;-67
2023/06/19 03:36:35;;;;;;;3.50;2.77;;;;;;;;;;5040283;28;20213;-67
2023/06/19 03:39:04;;;;;;;4.57;3.07;;;;;;;;;;5040088;28;20607;-67
2023/06/19 03:41:32;;;;;;;3.03;2.83;;;;;;;;;;5040376;28;20249;-67
2023/06/19 03:44:00;;;;;;;3.47;3.20;;;;;;;;;;5040522;28;20205;-67
2023/06/19 03:46:28;;;;;;;3.30;3.00;;;;;;;;;;5040051;28;20209;-67
2023/06/19 03:48:56;;;;;;;3.57;3.27;;;;;;;;;;5042012;28;20260;-67
2023/06/19 03:51:24;;;;;;;3.40;3.10;;;;;;;;;;5057652;28;20240;-67
2023/06/19 03:53:53;;;;;;;3.63;2.97;;;;;;;;;;5059998;28;20277;-67
2023/06/19 03:56:23;;;;;;;4.63;3.00;;;;;;;;;;5059884;28;20205;-66
2023/06/19 03:58:53;;;;;;;3.90;3.60;;;;;;;;;;5056517;28;20251;-67
2023/06/19 04:01:21;;;;;;;3.53;2.93;;;;;;;;;;5053155;28;20205;-67
2023/06/19 04:03:49;;;;;;;2.77;2.57;;;;;;;;;;5055940;28;20265;-67
2023/06/19 04:06:18;;;;;;;3.87;3.57;;;;;;;;;;5059605;28;20732;-67
2023/06/19 04:08:46;;;;;;;4.70;3.20;;;;;;;;;;5059551;28;20234;-67
2023/06/19 04:11:14;;;;;;;4.93;3.10;;;;;;;;;;5059571;28;20210;-67
2023/06/19 04:13:43;;;;;;;4.93;3.43;;;;;;;;;;5059523;28;20207;-66
2023/06/19 04:16:11;;;;;;;3.83;3.27;;;;;;;;;;5059704;28;20200;-67
2023/06/19 04:18:39;;;;;;;3.50;3.20;;;;;;;;;;5058931;28;20693;-64
2023/06/19 04:21:07;;;;;;;3.83;3.03;;;;;;;;;;5059315;28;20212;-64
2023/06/19 04:23:35;;;;;;;3.77;3.20;;;;;;;;;;5059319;28;20214;-64
2023/06/19 04:26:03;;;;;;;3.83;3.20;;;;;;;;;;5059345;28;20228;-64
2023/06/19 04:28:31;;;;;;;3.83;3.43;;;;;;;;;;5059314;28;20231;-64
2023/06/19 04:31:01;;;;;;;3.63;3.03;;;;;;;;;;5059523;28;20212;-64
2023/06/19 04:33:29;;;;;;;4.03;3.20;;;;;;;;;;5059204;28;20663;-64
2023/06/19 04:35:57;;;;;;;4.47;3.97;;;;;;;;;;5058888;28;20720;-64
2023/06/19 04:38:25;;;;;;;4.03;3.30;;;;;;;;;;5059223;28;20230;-64
2023/06/19 04:40:54;;;;;;;4.07;3.67;;;;;;;;;;5058661;28;20207;-64
2023/06/19 04:43:24;;;;;;;4.27;3.50;;;;;;;;;;5059037;28;20211;-63
2023/06/19 04:45:53;;;;;;;5.77;3.77;;;;;;;;;;5059140;28;20200;-64
2023/06/19 04:48:24;;;;;;;6.30;3.53;;;;;;;;;;5061220;28;20227;-64
2023/06/19 04:50:54;;;;;;;3.73;3.20;;;;;;;;;;5045106;28;20326;-64
2023/06/19 04:53:22;;;;;;;3.43;3.13;;;;;;;;;;5038817;28;20208;-64
2023/06/19 04:55:51;;;;;;;3.50;3.20;;;;;;;;;;5038910;28;20232;-64
2023/06/19 04:58:20;;;;;;;4.23;3.63;;;;;;;;;;5035685;28;20228;-64
2023/06/19 05:00:51;;;;;;;4.67;3.40;;;;;;;;;;5039005;28;20210;-64
2023/06/19 05:03:19;;;;;;;4.83;3.60;;;;;;;;;;5038697;28;20204;-64
2023/06/19 05:05:48;;;;;;;4.47;3.17;;;;;;;;;;5035583;28;20260;-67
2023/06/19 05:08:16;;;;;;;4.97;3.77;;;;;;;;;;5037789;28;20714;-66
2023/06/19 05:10:44;;;;;;;3.60;3.23;;;;;;;;;;5038453;28;20216;-67
2023/06/19 05:13:13;;;;;;;5.53;3.23;;;;;;;;;;5038167;28;20208;-67
2023/06/19 05:15:41;;;;;;;3.70;3.40;;;;;;;;;;5038271;28;20284;-67
2023/06/19 05:18:09;;;;;;;4.00;3.30;;;;;;;;;;5038019;28;20718;-67
2023/06/19 05:20:37;;;;;;;5.17;3.27;;;;;;;;;;5037825;28;20744;-67
2023/06/19 05:23:07;;;;;;;5.27;3.17;;;;;;;;;;5038009;28;20205;-69
2023/06/19 05:25:35;;;;;;;3.30;3.00;;;;;;;;;;5037799;28;20223;-69
2023/06/19 05:28:03;;;;;;;4.47;3.33;;;;;;;;;;5037762;28;20279;-68
2023/06/19 05:30:34;;;;;;;4.37;3.30;;;;;;;;;;5038136;28;20215;-68
2023/06/19 05:33:02;;;;;;;5.10;3.20;;;;;;;;;;5038264;28;20211;-69
2023/06/19 05:35:31;;;;;;;6.97;3.60;;;;;;;;;;5037781;28;20236;-69
2023/06/19 05:37:59;;;;;;;3.93;3.40;;;;;;;;;;5037691;28;20235;-68
2023/06/19 05:40:29;;;;;;;7.00;3.30;;;;;;;;;;5037570;28;20300;-69
2023/06/19 05:42:58;;;;;;;9.13;3.77;;;;;;;;;;5037810;28;20213;-69
2023/06/19 05:45:25;;;;;;;6.63;3.37;;;;;;;;;;5037734;28;20625;-69
2023/06/19 05:47:53;;;;;;;5.07;3.37;;;;;;;;;;5038831;28;20723;-69
2023/06/19 05:50:21;;;;;;;4.50;3.67;;;;;;;;;;5037077;28;20617;-68
2023/06/19 05:52:50;;;;;;;5.47;3.87;;;;;;;;;;5036377;28;20624;-67
2023/06/19 05:55:18;;;;;;;5.90;3.70;;;;;;;;;;5036156;28;20224;-68
2023/06/19 05:57:48;;;;;;;10.13;3.60;;;;;;;;;;5037061;28;20220;-68
2023/06/19 06:00:16;;;;;;;6.97;3.90;;;;;;;;;;5036081;28;20202;-68
2023/06/19 06:02:44;;;;;;;6.50;4.00;;;;;;;;;;5036933;28;20208;-68
2023/06/19 06:05:12;;;;;;;7.10;3.60;;;;;;;;;;5036777;28;20204;-69
2023/06/19 06:07:40;;;;;;;5.00;3.70;;;;;;;;;;5037373;28;20220;-68
2023/06/19 06:10:09;;;;;;;8.70;3.73;;;;;;;;;;5037516;28;20209;-68
2023/06/19 06:12:37;;;;;;;8.47;3.47;;;;;;;;;;5037509;28;20683;-69
2023/06/19 06:15:07;;;;;;;7.93;3.90;;;;;;;;;;5037448;28;20209;-68
2023/06/19 06:17:35;;;;;;;4.57;3.50;;;;;;;;;;5037392;28;20304;-68
2023/06/19 06:20:06;;;;;;;3.93;3.43;;;;;;;;;;5037458;28;20210;-69
2023/06/19 06:22:34;;;;;;;5.83;3.50;;;;;;;;;;5037425;28;20208;-68
2023/06/19 06:25:02;;;;;;;8.80;4.00;;;;;;;;;;5037397;28;20204;-68
2023/06/19 06:27:30;;;;;;;4.20;3.80;;;;;;;;;;5037564;28;20219;-71
2023/06/19 06:29:58;;;;;;;68.93;46.00;;;;;;;;;;5029592;28;20263;-64
2023/06/19 06:32:28;;;;;;;274.60;171.53;;;;;;;;;;5035249;28;20204;-63
2023/06/19 06:34:56;;;;;;;20.83;14.53;;;;;;;;;;5037393;28;20212;-64
2023/06/19 06:37:25;;;;;;;9.53;5.13;;;;;;;;;;5036526;28;20583;-63
2023/06/19 06:39:53;;;;;;;7.73;5.07;;;;;;;;;;5034256;28;20200;-64
2023/06/19 06:42:21;;;;;;;7.83;4.77;;;;;;;;;;5036986;28;20201;-64
2023/06/19 06:44:49;;;;;;;8.90;5.37;;;;;;;;;;5037156;28;20200;-63
2023/06/19 06:47:17;;;;;;;7.30;5.13;;;;;;;;;;5028481;28;20200;-64
2023/06/19 06:49:46;;;;;;;9.20;5.30;;;;;;;;;;5023179;28;20805;-63
2023/06/19 06:52:14;;;;;;;9.07;6.60;;;;;;;;;;5017798;28;20213;-64
2023/06/19 06:54:42;;;;;;;9.87;5.80;;;;;;;;;;5017690;28;20212;-64
2023/06/19 06:57:10;;;;;;;9.40;5.77;;;;;;;;;;5020772;28;20217;-64
2023/06/19 06:59:38;;;;;;;34.30;20.13;;;;;;;;;;5036638;28;20227;-67
2023/06/19 07:02:06;;;;;;;5.97;4.30;;;;;;;;;;5033187;28;20207;-65
2023/06/19 07:04:34;;;;;;;7.23;4.37;;;;;;;;;;5039398;28;20571;-65
2023/06/19 07:07:05;;;;;;;5.13;4.33;;;;;;;;;;5039928;28;20659;-65
2023/06/19 07:09:34;;;;;;;5.27;4.50;;;;;;;;;;5040771;28;20231;-64
2023/06/19 07:12:04;;;;;;;5.37;4.13;;;;;;;;;;5040660;28;20209;-65
2023/06/19 07:14:32;;;;;;;4.13;3.77;;;;;;;;;;5040479;28;20207;-65
2023/06/19 07:17:00;;;;;;;4.17;3.77;;;;;;;;;;5040197;28;20224;-65
2023/06/19 07:19:29;;;;;;;3.97;3.47;;;;;;;;;;5040170;28;20235;-65
2023/06/19 07:21:57;;;;;;;6.90;3.97;;;;;;;;;;5040716;28;20218;-64
2023/06/19 07:24:27;;;;;;;6.70;3.67;;;;;;;;;;5039801;28;20747;-64
2023/06/19 07:26:56;;;;;;;6.50;3.90;;;;;;;;;;5040041;28;20685;-64
2023/06/19 07:29:25;;;;;;;4.30;3.90;;;;;;;;;;5040193;28;20230;-64
2023/06/19 07:31:53;;;;;;;4.10;3.70;;;;;;;;;;5040482;28;20214;-64
2023/06/19 07:34:21;;;;;;;6.83;3.27;;;;;;;;;;5039623;28;20213;-64
2023/06/19 07:36:49;;;;;;;6.27;4.20;;;;;;;;;;5039990;28;20230;-65
2023/06/19 07:39:17;;;;;;;5.73;3.70;;;;;;;;;;5039695;28;20234;-66
2023/06/19 07:41:47;;;;;;;3.70;3.40;;;;;;;;;;5038544;28;20202;-70
2023/06/19 07:44:17;;;;;;;3.80;3.03;;;;;;;;;;5039646;28;20209;-69
2023/06/19 07:46:45;;;;;;;9.70;3.50;;;;;;;;;;5039797;28;20200;-65
2023/06/19 07:49:13;;;;;;;3.50;3.20;;;;;;;;;;5042027;28;20752;-65
2023/06/19 07:51:41;;;;;;;4.10;3.33;;;;;;;;;;5059906;28;20206;-65
2023/06/19 07:54:09;;;;;;;3.53;3.23;;;;;;;;;;5047630;28;20210;-65
2023/06/19 07:56:37;;;;;;;8.30;3.40;;;;;;;;;;5059655;28;20716;-65
2023/06/19 07:59:07;;;;;;;5.93;3.20;;;;;;;;;;5053248;28;20249;-64
2023/06/19 08:01:35;;;;;;;4.90;4.17;;;;;;;;;;5059732;28;20215;-64
2023/06/19 08:04:03;;;;;;;5.20;3.80;;;;;;;;;;5059388;28;20238;-64
2023/06/19 08:06:31;;;;;;;6.47;4.03;;;;;;;;;;5059427;28;20204;-64
2023/06/19 08:08:59;;;;;;;9.90;4.13;;;;;;;;;;5059594;28;20228;-64
2023/06/19 08:11:27;;;;;;;4.30;3.90;;;;;;;;;;5059198;28;20200;-64
2023/06/19 08:13:55;;;;;;;4.40;3.20;;;;;;;;;;5058798;28;20212;-64
2023/06/19 08:16:25;;;;;;;4.30;3.23;;;;;;;;;;5059194;28;20649;-63
2023/06/19 08:18:53;;;;;;;4.17;3.60;;;;;;;;;;5058569;28;20226;-65
2023/06/19 08:21:21;;;;;;;6.03;3.40;;;;;;;;;;5058596;28;20212;-64
2023/06/19 08:23:49;;;;;;;4.17;3.03;;;;;;;;;;5058813;28;20308;-64
2023/06/19 08:26:18;;;;;;;9.43;4.30;;;;;;;;;;5058570;28;20648;-64
2023/06/19 08:28:46;;;;;;;7.40;3.47;;;;;;;;;;5056093;28;20223;-65
2023/06/19 08:31:14;;;;;;;6.23;3.90;;;;;;;;;;5058443;28;20594;-64
2023/06/19 08:33:43;;;;;;;9.47;3.20;;;;;;;;;;5058511;28;20198;-64
2023/06/19 08:36:11;;;;;;;5.00;3.50;;;;;;;;;;5058467;28;20201;-65
2023/06/19 08:38:39;;;;;;;5.83;3.40;;;;;;;;;;5058267;28;20587;-65
2023/06/19 08:41:07;;;;;;;4.13;3.47;;;;;;;;;;5055934;28;20196;-65
2023/06/19 08:43:35;;;;;;;3.80;3.10;;;;;;;;;;5058333;28;20201;-65
2023/06/19 08:46:08;;;;;;;4.20;3.03;;;;;;;;;;5043522;28;20231;-65
2023/06/19 08:48:36;;;;;;;5.27;3.53;;;;;;;;;;5057152;28;20227;-65
2023/06/19 08:51:06;;;;;;;4.70;3.30;;;;;;;;;;5043293;28;20242;-65
2023/06/19 08:53:35;;;;;;;3.90;3.07;;;;;;;;;;5038480;28;20214;-68
2023/06/19 08:56:03;;;;;;;8.87;3.00;;;;;;;;;;5038608;28;20663;-68
2023/06/19 08:58:31;;;;;;;5.90;3.37;;;;;;;;;;5038738;28;20232;-68
2023/06/19 09:01:00;;;;;;;5.27;3.20;;;;;;;;;;5038730;28;20206;-68
2023/06/19 09:03:28;;;;;;;4.30;3.13;;;;;;;;;;5038505;28;20724;-69
2023/06/19 09:05:56;;;;;;;3.90;3.17;;;;;;;;;;5038420;28;20214;-70
2023/06/19 09:08:25;;;;;;;3.70;3.20;;;;;;;;;;5038710;28;20279;-68
2023/06/19 09:10:57;;;;;;;4.47;3.40;;;;;;;;;;5037747;28;20661;-68
2023/06/19 09:13:25;;;;;;;3.70;2.90;;;;;;;;;;5038183;28;20237;-67
2023/06/19 09:15:58;;;;;;;4.97;3.00;;;;;;;;;;5032437;28;20214;-65
2023/06/19 09:18:27;;;;;;;4.10;3.40;;;;;;;;;;5037324;28;20231;-66
2023/06/19 09:20:55;;;;;;;4.00;3.30;;;;;;;;;;5038013;28;20221;-65
2023/06/19 09:23:23;;;;;;;3.90;3.03;;;;;;;;;;5038056;28;20213;-66
2023/06/19 09:25:54;;;;;;;3.70;3.40;;;;;;;;;;5036858;28;20204;-67
2023/06/19 09:28:23;;;;;;;3.90;3.03;;;;;;;;;;5037415;28;20700;-68
2023/06/19 09:30:56;;;;;;;9.37;3.40;;;;;;;;;;5037410;28;20536;-69
2023/06/19 09:33:24;;;;;;;5.90;3.70;;;;;;;;;;5037015;28;20263;-68
2023/06/19 09:35:55;;;;;;;4.17;3.73;;;;;;;;;;5037469;28;20263;-69
2023/06/19 09:38:25;;;;;;;4.27;3.80;;;;;;;;;;5037720;28;20295;-67
2023/06/19 09:40:56;;;;;;;3.43;3.13;;;;;;;;;;5037677;28;20204;-68
2023/06/19 09:43:25;;;;;;;4.83;3.90;;;;;;;;;;5036366;28;20226;-67
2023/06/19 09:45:57;;;;;;;6.30;3.27;;;;;;;;;;5037393;28;20663;-68
2023/06/19 09:48:28;;;;;;;3.80;3.40;;;;;;;;;;5033681;28;20249;-65
2023/06/19 09:51:02;;;;;;;4.17;3.53;;;;;;;;;;5050302;28;20270;-67
2023/06/19 09:53:30;;;;;;;3.57;3.27;;;;;;;;;;5054359;28;20200;-67
2023/06/19 09:55:59;;;;;;;3.73;3.23;;;;;;;;;;5049491;28;20204;-66
2023/06/19 09:58:28;;;;;;;5.03;3.80;;;;;;;;;;5052131;28;20227;-68
2023/06/19 10:00:56;;;;;;;3.87;3.47;;;;;;;;;;5057945;28;20264;-66
2023/06/19 10:03:30;;;;;;;4.03;3.20;;;;;;;;;;5057727;28;20206;-66
2023/06/19 10:05:59;;;;;;;4.30;3.90;;;;;;;;;;5054492;28;20577;-66
2023/06/19 10:08:31;;;;;;;5.17;3.73;;;;;;;;;;5050210;28;20222;-66
2023/06/19 10:11:00;;;;;;;4.87;3.30;;;;;;;;;;5037511;28;20654;-68
2023/06/19 10:13:32;;;;;;;3.83;3.43;;;;;;;;;;5037872;28;20214;-68
2023/06/19 10:16:01;;;;;;;5.27;3.10;;;;;;;;;;5037694;28;20216;-67
2023/06/19 10:18:29;;;;;;;4.43;3.00;;;;;;;;;;5037171;28;20642;-67
2023/06/19 10:20:57;;;;;;;3.30;3.00;;;;;;;;;;5037370;28;20241;-67
2023/06/19 10:23:28;;;;;;;5.60;3.70;;;;;;;;;;5037584;28;20218;-67
2023/06/19 10:25:57;;;;;;;4.03;3.63;;;;;;;;;;5037690;28;20207;-67
2023/06/19 10:28:27;;;;;;;4.85;3.25;;;;;;;;;;5037458;28;20223;-68
2023/06/19 10:30:55;;;;;;;3.23;2.80;;;;;;;;;;5037635;28;20761;-68
2023/06/19 10:33:23;;;;;;;3.10;2.90;;;;;;;;;;5037341;28;20203;-68
2023/06/19 10:35:51;;;;;;;6.68;3.13;;;;;;;;;;5037383;28;20244;-67
2023/06/19 10:38:19;;;;;;;3.58;3.17;;;;;;;;;;5039910;28;20258;-68
2023/06/19 10:40:48;;;;;;;3.72;3.38;;;;;;;;;;5041528;28;20217;-68
2023/06/19 10:43:21;;;;;;;4.78;3.38;;;;;;;;;;5041604;28;20210;-68
2023/06/19 10:45:51;;;;;;;3.42;3.00;;;;;;;;;;5041537;28;20210;-67
2023/06/19 10:48:20;;;;;;;5.50;3.83;;;;;;;;;;5060628;28;20265;-68
2023/06/19 10:50:49;;;;;;;5.05;3.80;;;;;;;;;;5060810;28;20338;-67
2023/06/19 10:53:26;;;;;;;3.40;2.85;;;;;;;;;;5061419;28;20210;-67
2023/06/19 10:55:58;;;;;;;5.80;3.60;;;;;;;;;;5061255;28;20298;-67
2023/06/19 10:58:27;;;;;;;6.63;4.00;;;;;;;;;;5052134;28;20238;-67
2023/06/19 11:00:56;;;;;;;3.47;3.03;;;;;;;;;;5057762;28;20218;-67
2023/06/19 11:03:24;;;;;;;4.28;2.97;;;;;;;;;;5061284;28;20253;-68
2023/06/19 11:05:53;;;;;;;6.23;3.17;;;;;;;;;;5060976;28;20216;-67
2023/06/19 11:08:21;;;;;;;4.35;3.08;;;;;;;;;;5061050;28;20232;-68
2023/06/19 11:10:50;;;;;;;5.60;3.17;;;;;;;;;;5060799;28;20744;-67
2023/06/19 11:13:19;;;;;;;3.58;3.28;;;;;;;;;;5061066;28;20216;-68
2023/06/19 11:15:49;;;;;;;4.80;3.38;;;;;;;;;;5060791;28;20211;-68
2023/06/19 11:18:19;;;;;;;4.45;3.03;;;;;;;;;;5060582;28;20236;-68
2023/06/19 11:20:48;;;;;;;8.23;3.33;;;;;;;;;;5060444;28;20211;-68
2023/06/19 11:23:17;;;;;;;5.57;3.53;;;;;;;;;;5060641;28;20216;-67
2023/06/19 11:25:45;;;;;;;4.32;3.40;;;;;;;;;;5060804;28;20211;-68
2023/06/19 11:28:14;;;;;;;3.83;3.53;;;;;;;;;;5060362;28;20698;-68
2023/06/19 11:30:43;;;;;;;4.80;3.50;;;;;;;;;;5060782;28;20209;-68
2023/06/19 11:33:22;;;;;;;5.13;3.15;;;;;;;;;;5060186;28;20213;-68
2023/06/19 11:35:50;;;;;;;5.82;3.50;;;;;;;;;;5060311;28;20619;-68
2023/06/19 11:38:19;;;;;;;6.03;3.88;;;;;;;;;;5060298;28;20314;-68
2023/06/19 11:40:47;;;;;;;5.15;4.30;;;;;;;;;;5060571;28;20209;-68
2023/06/19 11:43:24;;;;;;;7.38;3.90;;;;;;;;;;5060152;28;20680;-68
2023/06/19 11:45:53;;;;;;;3.92;3.63;;;;;;;;;;5060437;28;20216;-68
2023/06/19 11:48:24;;;;;;;6.03;3.83;;;;;;;;;;5065663;28;20229;-68
2023/06/19 11:50:52;;;;;;;7.00;3.58;;;;;;;;;;5059551;28;20244;-68
2023/06/19 11:53:20;;;;;;;5.20;3.30;;;;;;;;;;5060085;28;20213;-68
2023/06/19 11:55:48;;;;;;;5.47;3.95;;;;;;;;;;5060189;28;20218;-68
2023/06/19 11:58:16;;;;;;;3.47;3.17;;;;;;;;;;5052372;28;20231;-68
2023/06/19 12:00:44;;;;;;;3.25;3.00;;;;;;;;;;5055988;28;20217;-68
2023/06/19 12:03:12;;;;;;;4.10;3.75;;;;;;;;;;5059639;28;20222;-68
2023/06/19 12:05:42;;;;;;;5.75;3.35;;;;;;;;;;5059622;28;20210;-67
2023/06/19 12:08:10;;;;;;;6.10;3.42;;;;;;;;;;5059703;28;20304;-68
2023/06/19 12:10:38;;;;;;;2.70;2.50;;;;;;;;;;5059920;28;20221;-68
2023/06/19 12:13:06;;;;;;;6.28;3.20;;;;;;;;;;5059705;28;20690;-68
2023/06/19 12:15:34;;;;;;;5.35;3.38;;;;;;;;;;5059848;28;20264;-68
2023/06/19 12:18:06;;;;;;;4.82;3.53;;;;;;;;;;5059630;28;20231;-68
2023/06/19 12:20:35;;;;;;;4.45;3.00;;;;;;;;;;5059425;28;20210;-68
2023/06/19 12:23:04;;;;;;;10.55;3.20;;;;;;;;;;5059789;28;20207;-68
2023/06/19 12:25:32;;;;;;;5.60;3.97;;;;;;;;;;5059401;28;20744;-68
2023/06/19 12:28:00;;;;;;;4.55;3.30;;;;;;;;;;5059242;28;20222;-68
2023/06/19 12:30:28;;;;;;;3.08;2.78;;;;;;;;;;5059371;28;20562;-68
2023/06/19 12:32:57;;;;;;;3.22;2.92;;;;;;;;;;5059056;28;20620;-68
2023/06/19 12:35:25;;;;;;;3.38;2.85;;;;;;;;;;5059400;28;20256;-67
2023/06/19 12:37:54;;;;;;;17.40;5.22;;;;;;;;;;5059076;28;20713;-68
2023/06/19 12:40:24;;;;;;;6.80;3.90;;;;;;;;;;5059391;28;20226;-68
2023/06/19 12:42:52;;;;;;;6.07;3.03;;;;;;;;;;5059518;28;20209;-68
2023/06/19 12:45:20;;;;;;;4.30;3.00;;;;;;;;;;5059097;28;20676;-68
2023/06/19 12:47:48;;;;;;;4.85;3.47;;;;;;;;;;5064957;28;20277;-68
2023/06/19 12:50:16;;;;;;;3.30;3.00;;;;;;;;;;5058720;28;20659;-68
2023/06/19 12:52:44;;;;;;;3.38;2.63;;;;;;;;;;5058889;28;20214;-68
2023/06/19 12:55:12;;;;;;;7.65;3.35;;;;;;;;;;5059177;28;20217;-68
2023/06/19 12:57:42;;;;;;;4.95;2.90;;;;;;;;;;5055851;28;20222;-68
2023/06/19 13:00:11;;;;;;;3.92;2.80;;;;;;;;;;5049849;28;20230;-68
2023/06/19 13:02:40;;;;;;;3.35;2.60;;;;;;;;;;5058603;28;20242;-68
2023/06/19 13:05:08;;;;;;;3.67;2.88;;;;;;;;;;5058275;28;20256;-68
2023/06/19 13:07:36;;;;;;;6.95;3.40;;;;;;;;;;5058709;28;20223;-68
2023/06/19 13:10:05;;;;;;;4.13;2.65;;;;;;;;;;5058550;28;20214;-68
2023/06/19 13:12:34;;;;;;;8.57;3.42;;;;;;;;;;5058740;28;20210;-68
2023/06/19 13:15:03;;;;;;;18.98;5.55;;;;;;;;;;5058724;28;20206;-68
2023/06/19 13:17:31;;;;;;;6.18;3.30;;;;;;;;;;5058769;28;20214;-68
2023/06/19 13:20:00;;;;;;;3.45;2.75;;;;;;;;;;5057860;28;20755;-68
2023/06/19 13:22:28;;;;;;;3.42;2.85;;;;;;;;;;5058354;28;20206;-68
2023/06/19 13:24:56;;;;;;;4.13;3.03;;;;;;;;;;5058500;28;20210;-68
2023/06/19 13:27:24;;;;;;;4.80;3.28;;;;;;;;;;5058256;28;20578;-68
2023/06/19 13:29:52;;;;;;;3.47;3.17;;;;;;;;;;5058381;28;20206;-68
2023/06/19 13:32:22;;;;;;;3.20;2.58;;;;;;;;;;5058460;28;20203;-68
2023/06/19 13:34:50;;;;;;;4.13;3.10;;;;;;;;;;5058038;28;20212;-68
2023/06/19 13:37:18;;;;;;;4.60;2.97;;;;;;;;;;5058163;28;20210;-68
2023/06/19 13:39:46;;;;;;;3.42;3.10;;;;;;;;;;5057905;28;20262;-68
2023/06/19 13:42:14;;;;;;;3.33;3.03;;;;;;;;;;5058334;28;20211;-68
2023/06/19 13:44:42;;;;;;;8.88;3.47;;;;;;;;;;5057856;28;20234;-68
2023/06/19 13:47:10;;;;;;;5.90;3.33;;;;;;;;;;5061771;28;20212;-68
2023/06/19 13:49:40;;;;;;;3.65;2.55;;;;;;;;;;5058436;28;20589;-68
2023/06/19 13:52:08;;;;;;;4.32;3.08;;;;;;;;;;5058211;28;20209;-67
2023/06/19 13:54:37;;;;;;;4.72;2.97;;;;;;;;;;5058014;28;20234;-68
2023/06/19 13:57:05;;;;;;;3.28;2.80;;;;;;;;;;5058052;28;20214;-68
2023/06/19 13:59:33;;;;;;;5.18;2.97;;;;;;;;;;5045308;28;20257;-69
2023/06/19 14:02:01;;;;;;;4.28;3.20;;;;;;;;;;5058041;28;20221;-68
2023/06/19 14:04:29;;;;;;;7.35;3.33;;;;;;;;;;5057284;28;20260;-68
2023/06/19 14:06:59;;;;;;;4.60;3.05;;;;;;;;;;5057941;28;20206;-68
2023/06/19 14:09:27;;;;;;;6.78;3.08;;;;;;;;;;5057605;28;20693;-67
2023/06/19 14:11:55;;;;;;;3.78;2.70;;;;;;;;;;5057194;28;20214;-68
2023/06/19 14:14:25;;;;;;;3.65;3.00;;;;;;;;;;5057810;28;20210;-68
2023/06/19 14:16:53;;;;;;;3.45;3.15;;;;;;;;;;5057727;28;20291;-68
2023/06/19 14:19:23;;;;;;;2.95;2.72;;;;;;;;;;5057357;28;20235;-68
2023/06/19 14:21:51;;;;;;;3.20;2.60;;;;;;;;;;5057604;28;20211;-68
2023/06/19 14:24:20;;;;;;;6.25;3.03;;;;;;;;;;5057510;28;20293;-68
2023/06/19 14:26:48;;;;;;;3.40;3.10;;;;;;;;;;5057634;28;20210;-68
2023/06/19 14:29:18;;;;;;;7.03;3.55;;;;;;;;;;5057629;28;20226;-68
2023/06/19 14:31:46;;;;;;;3.20;2.92;;;;;;;;;;5057619;28;20285;-68
2023/06/19 14:34:14;;;;;;;7.57;3.20;;;;;;;;;;5057088;28;20229;-68
2023/06/19 14:36:42;;;;;;;6.20;3.30;;;;;;;;;;5057323;28;20549;-68
2023/06/19 14:39:11;;;;;;;3.25;2.95;;;;;;;;;;5057321;28;20284;-68
2023/06/19 14:41:41;;;;;;;6.00;3.25;;;;;;;;;;5057194;28;20258;-68
2023/06/19 14:44:09;;;;;;;4.80;2.78;;;;;;;;;;5057570;28;20255;-68
2023/06/19 14:46:39;;;;;;;4.00;3.20;;;;;;;;;;5057468;28;20213;-68
2023/06/19 14:49:07;;;;;;;4.60;3.17;;;;;;;;;;5063108;28;20230;-68
2023/06/19 14:51:35;;;;;;;3.28;3.05;;;;;;;;;;5036983;28;20293;-68